createdAt,value
2019-05-02T00:01:28.278Z,73.00
2019-05-02T00:03:57.817Z,75.07
2019-05-02T00:06:27.148Z,82.20
2019-05-02T00:08:56.244Z,77.70
2019-05-02T00:11:25.519Z,76.47
2019-05-02T00:13:54.405Z,79.60
2019-05-02T00:16:23.325Z,81.83
2019-05-02T00:18:52.614Z,77.60
2019-05-02T00:21:21.489Z,75.90
2019-05-02T00:23:50.599Z,81.37
2019-05-02T00:26:19.498Z,75.87
2019-05-02T00:28:49.934Z,78.90
2019-05-02T00:31:20.669Z,77.50
2019-05-02T00:33:49.712Z,79.23
2019-05-02T00:36:18.591Z,78.20
2019-05-02T00:38:47.574Z,82.00
2019-05-02T00:41:16.562Z,80.93
2019-05-02T00:43:45.548Z,81.47
2019-05-02T00:46:14.386Z,79.17
2019-05-02T00:49:02.064Z,80.80
2019-05-02T00:51:31.004Z,76.07
2019-05-02T00:53:59.945Z,87.17
2019-05-02T00:56:28.839Z,89.33
2019-05-02T00:59:02.463Z,86.97
2019-05-02T01:01:44.652Z,88.30
2019-05-02T01:04:27.529Z,81.60
2019-05-02T01:06:54.097Z,80.83
2019-05-02T01:09:23.088Z,83.83
2019-05-02T01:11:51.876Z,83.10
2019-05-02T01:14:20.794Z,83.83
2019-05-02T01:16:54.327Z,89.47
2019-05-02T01:19:20.400Z,86.97
2019-05-02T01:21:49.350Z,90.60
2019-05-02T01:24:18.423Z,86.33
2019-05-02T01:27:06.511Z,93.10
2019-05-02T01:29:40.414Z,87.07
2019-05-02T01:32:19.224Z,85.97
2019-05-02T01:34:54.307Z,95.83
2019-05-02T01:37:41.162Z,88.60
2019-05-02T01:40:12.947Z,84.27
2019-05-02T01:42:44.427Z,88.60
2019-05-02T01:45:12.571Z,96.87
2019-05-02T01:47:41.492Z,91.37
2019-05-02T01:50:10.746Z,90.97
2019-05-02T01:52:39.643Z,87.43
2019-05-02T01:55:08.644Z,91.47
2019-05-02T01:57:39.957Z,85.33
2019-05-02T02:00:11.438Z,87.97
2019-05-02T02:02:40.442Z,91.90
2019-05-02T02:05:09.535Z,91.30
2019-05-02T02:07:38.502Z,95.00
2019-05-02T02:10:08.105Z,91.50
2019-05-02T02:12:41.266Z,94.23
2019-05-02T02:15:07.867Z,90.67
2019-05-02T02:17:36.759Z,97.50
2019-05-02T02:20:09.747Z,99.07
2019-05-02T02:22:54.264Z,101.40
2019-05-02T02:25:36.349Z,94.00
2019-05-02T02:28:03.818Z,92.67
2019-05-02T02:30:32.837Z,91.60
2019-05-02T02:33:07.758Z,95.67
2019-05-02T02:35:32.470Z,97.93
2019-05-02T02:38:01.464Z,99.00
2019-05-02T02:40:33.767Z,95.75
2019-05-02T02:43:13.067Z,100.67
2019-05-02T02:46:01.491Z,101.93
2019-05-02T02:48:33.705Z,99.13
2019-05-02T02:51:02.118Z,97.00
2019-05-02T02:53:31.040Z,104.50
2019-05-02T02:56:03.974Z,104.17
2019-05-02T02:58:44.301Z,101.13
2019-05-02T03:01:03.486Z,95.87
2019-05-02T03:03:35.175Z,99.33
2019-05-02T03:06:08.049Z,91.97
2019-05-02T03:08:44.647Z,103.47
2019-05-02T03:11:09.062Z,100.63
2019-05-02T03:13:52.748Z,102.80
2019-05-02T03:16:18.387Z,96.07
2019-05-02T03:18:47.357Z,101.17
2019-05-02T03:21:20.416Z,101.30
2019-05-02T03:23:47.145Z,105.13
2019-05-02T03:26:17.356Z,94.77
2019-05-02T03:28:57.621Z,98.37
2019-05-02T03:31:29.633Z,103.23
2019-05-02T03:34:00.206Z,90.50
2019-05-02T03:36:29.669Z,101.83
2019-05-02T03:38:49.467Z,99.07
2019-05-02T03:41:20.522Z,103.90
2019-05-02T03:43:50.424Z,106.70
2019-05-02T03:46:20.519Z,104.73
2019-05-02T03:48:49.953Z,115.67
2019-05-02T03:51:21.322Z,102.80
2019-05-02T03:53:49.638Z,102.77
2019-05-02T03:56:18.728Z,96.80
2019-05-02T03:58:55.447Z,106.87
2019-05-02T04:01:19.116Z,114.80
2019-05-02T04:03:48.377Z,113.10
2019-05-02T04:06:21.264Z,107.40
2019-05-02T04:08:59.300Z,107.93
2019-05-02T04:11:24.811Z,107.57
2019-05-02T04:13:55.705Z,115.47
2019-05-02T04:16:29.056Z,109.53
2019-05-02T04:19:06.498Z,111.10
2019-05-02T04:21:38.594Z,108.93
2019-05-02T04:24:13.412Z,112.70
2019-05-02T04:26:39.276Z,111.97
2019-05-02T04:29:08.201Z,114.20
2019-05-02T04:31:37.118Z,111.10
2019-05-02T04:34:14.033Z,108.87
2019-05-02T04:36:36.755Z,117.50
2019-05-02T04:39:12.627Z,102.57
2019-05-02T04:41:39.277Z,108.57
2019-05-02T04:44:09.059Z,109.93
2019-05-02T04:46:38.891Z,115.10
2019-05-02T04:49:09.192Z,114.43
2019-05-02T04:51:38.437Z,112.30
2019-05-02T04:54:09.194Z,116.90
2019-05-02T04:56:39.749Z,117.43
2019-05-02T04:59:17.623Z,115.00
2019-05-02T05:01:49.168Z,119.33
2019-05-02T05:04:10.063Z,115.47
2019-05-02T05:06:40.861Z,108.30
2019-05-02T05:09:13.494Z,109.87
2019-05-02T05:11:40.255Z,107.50
2019-05-02T05:14:09.965Z,111.10
2019-05-02T05:16:40.066Z,119.33
2019-05-02T05:19:09.040Z,110.37
2019-05-02T05:21:38.081Z,113.83
2019-05-02T05:24:27.876Z,111.30
2019-05-02T05:27:00.147Z,113.70
2019-05-02T05:29:29.232Z,122.50
2019-05-02T05:32:05.451Z,119.30
2019-05-02T05:34:32.657Z,116.97
2019-05-02T05:37:03.761Z,116.70
2019-05-02T05:39:30.228Z,121.07
2019-05-02T05:41:59.102Z,123.97
2019-05-02T05:44:32.481Z,113.03
2019-05-02T05:46:58.630Z,119.53
2019-05-02T05:49:28.323Z,121.17
2019-05-02T05:52:02.259Z,129.40
2019-05-02T05:54:28.470Z,130.20
2019-05-02T05:56:57.695Z,128.07
2019-05-02T05:59:28.029Z,138.83
2019-05-02T06:01:58.088Z,123.63
2019-05-02T06:04:32.594Z,126.23
2019-05-02T06:06:59.471Z,124.00
2019-05-02T06:09:31.018Z,124.67
2019-05-02T06:11:59.260Z,120.77
2019-05-02T06:14:28.351Z,117.97
2019-05-02T06:16:57.339Z,123.67
2019-05-02T06:19:26.281Z,118.77
2019-05-02T06:21:55.265Z,116.03
2019-05-02T06:24:24.204Z,119.77
2019-05-02T06:26:53.070Z,118.93
2019-05-02T06:29:21.980Z,110.43
2019-05-02T06:31:50.994Z,116.03
2019-05-02T06:34:19.928Z,123.20
2019-05-02T06:36:48.909Z,113.67
2019-05-02T06:39:17.774Z,119.77
2019-05-02T06:41:46.690Z,117.23
2019-05-02T06:44:18.643Z,110.87
2019-05-02T06:46:46.388Z,111.97
2019-05-02T06:49:15.303Z,120.17
2019-05-02T06:51:44.439Z,110.20
2019-05-02T06:54:13.466Z,107.07
2019-05-02T06:56:43.142Z,110.30
2019-05-02T06:59:17.929Z,105.87
2019-05-02T07:01:43.676Z,105.67
2019-05-02T07:04:12.530Z,105.30
2019-05-02T07:06:56.328Z,107.40
2019-05-02T07:09:12.399Z,104.03
2019-05-02T07:11:41.502Z,111.33
2019-05-02T07:14:13.405Z,114.53
2019-05-02T07:17:06.039Z,111.57
2019-05-02T07:19:40.951Z,108.80
2019-05-02T07:22:09.961Z,111.73
2019-05-02T07:24:39.141Z,104.27
2019-05-02T07:27:08.193Z,111.47
2019-05-02T07:29:37.075Z,108.77
2019-05-02T07:32:06.190Z,112.63
2019-05-02T07:34:35.157Z,116.20
2019-05-02T07:37:08.428Z,105.07
2019-05-02T07:39:36.061Z,101.50
2019-05-02T07:42:07.756Z,105.45
2019-05-02T07:44:36.325Z,114.73
2019-05-02T07:47:05.285Z,115.63
2019-05-02T07:49:34.424Z,118.83
2019-05-02T07:52:03.574Z,115.93
2019-05-02T07:54:32.431Z,112.20
2019-05-02T07:57:03.495Z,114.17
2019-05-02T07:59:32.746Z,114.57
2019-05-02T08:02:01.755Z,113.67
2019-05-02T08:04:30.675Z,136.60
2019-05-02T08:06:59.870Z,110.70
2019-05-02T08:09:29.377Z,117.63
2019-05-02T08:11:58.459Z,123.83
2019-05-02T08:14:29.286Z,125.40
2019-05-02T08:17:05.477Z,121.07
2019-05-02T08:19:28.912Z,124.47
2019-05-02T08:21:57.944Z,120.07
2019-05-02T08:24:26.844Z,121.43
2019-05-02T08:27:13.178Z,119.17
2019-05-02T08:29:42.425Z,114.40
2019-05-02T08:32:11.375Z,125.87
2019-05-02T08:34:40.213Z,121.30
2019-05-02T08:37:09.200Z,123.53
2019-05-02T08:39:38.007Z,126.60
2019-05-02T08:42:07.672Z,119.23
2019-05-02T08:44:49.958Z,119.37
2019-05-02T08:47:18.371Z,120.43
2019-05-02T08:49:38.341Z,127.50
2019-05-02T08:52:07.331Z,122.70
2019-05-02T08:54:36.232Z,116.70
2019-05-02T08:57:05.272Z,121.87
2019-05-02T08:59:34.172Z,124.23
2019-05-02T09:02:03.188Z,123.73
2019-05-02T09:04:32.052Z,118.70
2019-05-02T09:07:01.309Z,115.70
2019-05-02T09:09:30.170Z,119.63
2019-05-02T09:12:09.762Z,120.07
2019-05-02T09:14:32.062Z,113.87
2019-05-02T09:17:08.467Z,111.87
2019-05-02T09:19:34.273Z,114.67
2019-05-02T09:22:02.547Z,114.70
2019-05-02T09:24:32.627Z,105.20
2019-05-02T09:27:02.521Z,105.67
2019-05-02T09:29:32.710Z,110.20
2019-05-02T09:32:02.153Z,103.43
2019-05-02T09:34:31.888Z,112.30
2019-05-02T09:37:02.694Z,106.47
2019-05-02T09:39:36.276Z,101.55
2019-05-02T09:42:02.326Z,107.00
2019-05-02T09:44:33.314Z,107.47
2019-05-02T09:47:02.506Z,101.70
2019-05-02T09:49:32.488Z,100.07
2019-05-02T09:52:03.373Z,99.37
2019-05-02T09:54:32.390Z,104.40
2019-05-02T09:57:02.800Z,96.17
2019-05-02T09:59:33.300Z,94.83
2019-05-02T10:02:04.170Z,98.47
2019-05-02T10:04:33.132Z,97.90
2019-05-02T10:07:02.605Z,97.77
2019-05-02T10:09:32.407Z,94.87
2019-05-02T10:12:02.145Z,92.30
2019-05-02T10:14:33.096Z,87.03
2019-05-02T10:17:06.928Z,80.03
2019-05-02T10:19:33.055Z,81.73
2019-05-02T10:22:02.108Z,81.17
2019-05-02T10:24:32.226Z,83.23
2019-05-02T10:27:04.214Z,75.90
2019-05-02T10:29:32.928Z,82.23
2019-05-02T10:32:02.484Z,69.43
2019-05-02T10:34:32.948Z,78.50
2019-05-02T10:37:03.726Z,66.17
2019-05-02T10:39:34.029Z,70.10
2019-05-02T10:42:03.550Z,72.03
2019-05-02T10:44:36.329Z,64.15
2019-05-02T10:47:03.331Z,72.43
2019-05-02T10:49:44.501Z,64.57
2019-05-02T10:52:14.894Z,64.83
2019-05-02T10:54:43.903Z,74.07
2019-05-02T10:57:13.172Z,65.77
2019-05-02T10:59:42.256Z,68.63
2019-05-02T11:02:24.883Z,71.20
2019-05-02T11:04:56.711Z,54.13
2019-05-02T11:07:26.517Z,51.93
2019-05-02T11:09:57.392Z,62.23
2019-05-02T11:12:41.897Z,56.20
2019-05-02T11:15:38.627Z,61.27
2019-05-02T11:18:07.793Z,60.15
2019-05-02T11:20:36.749Z,57.23
2019-05-02T11:23:06.180Z,51.67
2019-05-02T11:25:35.036Z,45.10
2019-05-02T11:28:07.125Z,53.57
2019-05-02T11:30:36.656Z,53.87
2019-05-02T11:33:05.897Z,49.63
2019-05-02T11:35:35.571Z,55.33
2019-05-02T11:38:04.806Z,45.10
2019-05-02T11:40:33.828Z,49.10
2019-05-02T11:43:06.687Z,47.43
2019-05-02T11:45:33.442Z,53.40
2019-05-02T11:48:09.348Z,37.40
2019-05-02T11:50:35.478Z,34.63
2019-05-02T11:53:09.133Z,30.37
2019-05-02T11:55:34.543Z,38.73
2019-05-02T11:58:08.310Z,41.67
2019-05-02T12:00:34.171Z,38.90
2019-05-02T12:03:14.762Z,36.97
2019-05-02T12:05:44.144Z,34.17
2019-05-02T12:08:13.140Z,33.47
2019-05-02T12:10:42.408Z,34.63
2019-05-02T12:13:15.797Z,41.37
2019-05-02T12:15:44.167Z,36.80
2019-05-02T12:18:12.691Z,48.37
2019-05-02T12:20:42.497Z,42.03
2019-05-02T12:23:12.987Z,42.40
2019-05-02T12:25:42.468Z,46.60
2019-05-02T12:28:12.024Z,38.37
2019-05-02T12:30:41.908Z,42.47
2019-05-02T12:33:12.294Z,45.17
2019-05-02T12:35:43.276Z,48.90
2019-05-02T12:38:12.424Z,46.77
2019-05-02T12:40:42.238Z,46.20
2019-05-02T12:43:12.138Z,38.63
2019-05-02T12:45:42.154Z,41.77
2019-05-02T12:48:12.936Z,43.00
2019-05-02T12:50:42.028Z,44.97
2019-05-02T12:53:12.590Z,44.93
2019-05-02T12:55:42.295Z,45.00
2019-05-02T12:58:12.546Z,46.00
2019-05-02T13:00:43.070Z,32.80
2019-05-02T13:03:34.242Z,35.80
2019-05-02T13:06:03.439Z,32.07
2019-05-02T13:08:34.129Z,33.97
2019-05-02T13:11:22.175Z,35.00
2019-05-02T13:13:53.230Z,39.60
2019-05-02T13:16:22.637Z,35.40
2019-05-02T13:18:52.014Z,34.17
2019-05-02T13:21:38.722Z,35.27
2019-05-02T13:24:16.339Z,38.97
2019-05-02T13:26:43.171Z,33.57
2019-05-02T13:29:12.095Z,35.07
2019-05-02T13:32:01.673Z,27.07
2019-05-02T13:34:41.262Z,29.73
2019-05-02T13:37:12.192Z,33.50
2019-05-02T13:39:44.744Z,33.60
2019-05-02T13:42:14.198Z,28.30
2019-05-02T13:44:52.571Z,34.60
2019-05-02T13:47:22.573Z,31.50
2019-05-02T13:49:56.355Z,25.23
2019-05-02T13:52:22.655Z,26.13
2019-05-02T13:54:52.307Z,27.63
2019-05-02T13:57:21.899Z,28.03
2019-05-02T13:59:52.580Z,24.70
2019-05-02T14:02:37.859Z,23.90
2019-05-02T14:05:08.627Z,22.67
2019-05-02T14:07:38.081Z,17.17
2019-05-02T14:10:39.342Z,15.97
2019-05-02T14:13:06.400Z,15.23
2019-05-02T14:15:38.226Z,15.27
2019-05-02T14:18:07.218Z,19.13
2019-05-02T14:20:37.506Z,15.30
2019-05-02T14:23:07.012Z,18.47
2019-05-02T14:25:35.908Z,17.37
2019-05-02T14:28:04.883Z,13.13
2019-05-02T14:30:39.321Z,11.93
2019-05-02T14:33:11.761Z,15.77
2019-05-02T14:35:42.607Z,12.17
2019-05-02T14:38:13.263Z,15.17
2019-05-02T14:41:09.759Z,15.87
2019-05-02T14:43:53.216Z,13.97
2019-05-02T14:46:29.047Z,8.67
2019-05-02T14:48:55.303Z,13.07
2019-05-02T14:51:27.705Z,12.70
2019-05-02T14:53:57.364Z,11.23
2019-05-02T14:56:32.870Z,14.97
2019-05-02T14:59:02.652Z,12.10
2019-05-02T15:01:32.168Z,10.57
2019-05-02T15:04:06.429Z,11.70
2019-05-02T15:06:33.700Z,15.77
2019-05-02T15:09:03.105Z,11.40
2019-05-02T15:11:34.806Z,12.30
2019-05-02T15:14:03.164Z,18.17
2019-05-02T15:16:40.481Z,16.77
2019-05-02T15:19:03.007Z,21.90
2019-05-02T15:21:46.919Z,16.97
2019-05-02T15:24:14.996Z,13.97
2019-05-02T15:26:44.772Z,16.12
2019-05-02T15:29:19.679Z,15.00
2019-05-02T15:31:52.463Z,15.10
2019-05-02T15:34:27.372Z,14.93
2019-05-02T15:36:56.437Z,15.27
2019-05-02T15:41:56.090Z,22.37
2019-05-02T15:44:27.044Z,25.87
2019-05-02T15:46:58.440Z,15.37
2019-05-02T15:49:26.450Z,26.73
2019-05-02T15:51:55.409Z,14.07
2019-05-02T15:54:24.261Z,13.83
2019-05-02T15:57:01.099Z,14.33
2019-05-02T15:59:32.593Z,17.10
2019-05-02T16:02:06.696Z,26.43
2019-05-02T16:04:37.051Z,22.37
2019-05-02T16:07:08.441Z,21.63
2019-05-02T16:09:37.083Z,24.80
2019-05-02T16:12:06.263Z,20.40
2019-05-02T16:14:36.149Z,20.93
2019-05-02T16:17:05.450Z,20.23
2019-05-02T16:19:38.690Z,22.07
2019-05-02T16:22:18.239Z,24.47
2019-05-02T16:24:48.986Z,25.47
2019-05-02T16:27:23.774Z,22.97
2019-05-02T16:29:48.688Z,19.30
2019-05-02T16:32:35.939Z,23.75
2019-05-02T16:35:15.306Z,26.93
2019-05-02T16:37:38.858Z,20.47
2019-05-02T16:40:09.561Z,19.63
2019-05-02T16:42:41.780Z,23.13
2019-05-02T16:45:11.792Z,19.23
2019-05-02T16:47:42.284Z,20.97
2019-05-02T16:50:18.602Z,22.07
2019-05-02T16:52:49.601Z,21.87
2019-05-02T16:55:26.348Z,19.10
2019-05-02T16:57:56.645Z,21.33
2019-05-02T17:00:28.002Z,19.30
2019-05-02T17:02:57.829Z,22.77
2019-05-02T17:05:28.982Z,17.43
2019-05-02T17:08:20.013Z,19.43
2019-05-02T17:10:56.752Z,17.63
2019-05-02T17:13:27.597Z,20.50
2019-05-02T17:15:55.609Z,18.17
2019-05-02T17:18:27.747Z,20.30
2019-05-02T17:20:59.384Z,26.03
2019-05-02T17:23:30.624Z,20.63
2019-05-02T17:26:01.645Z,19.90
2019-05-02T17:28:33.347Z,14.57
2019-05-02T17:31:10.085Z,22.83
2019-05-02T17:33:41.710Z,15.93
2019-05-02T17:36:23.637Z,20.30
2019-05-02T17:38:51.919Z,19.63
2019-05-02T17:41:23.162Z,14.50
2019-05-02T17:43:52.773Z,14.17
2019-05-02T17:46:25.707Z,16.00
2019-05-02T17:48:54.257Z,13.70
2019-05-02T17:51:42.503Z,15.87
2019-05-02T17:54:17.470Z,15.30
2019-05-02T17:56:47.123Z,10.67
2019-05-02T17:59:20.865Z,13.30
2019-05-02T18:01:52.357Z,11.53
2019-05-02T18:04:22.001Z,13.87
2019-05-02T18:06:55.016Z,11.40
2019-05-02T18:09:26.389Z,16.53
2019-05-02T18:11:54.231Z,12.87
2019-05-02T18:14:24.065Z,17.40
2019-05-02T18:16:55.621Z,12.97
2019-05-02T18:19:27.502Z,16.30
2019-05-02T18:21:58.223Z,13.13
2019-05-02T18:24:30.411Z,16.30
2019-05-02T18:27:02.176Z,12.10
2019-05-02T18:29:36.269Z,14.60
2019-05-02T18:32:02.771Z,11.73
2019-05-02T18:34:31.965Z,16.87
2019-05-02T18:37:03.157Z,13.20
2019-05-02T18:39:34.732Z,14.30
2019-05-02T18:42:03.205Z,17.73
2019-05-02T18:44:32.670Z,12.90
2019-05-02T18:47:02.451Z,14.20
2019-05-02T18:49:32.219Z,11.73
2019-05-02T18:52:01.852Z,11.27
2019-05-02T18:54:31.286Z,10.30
2019-05-02T18:57:02.486Z,14.80
2019-05-02T18:59:32.066Z,14.97
2019-05-02T19:02:02.916Z,15.10
2019-05-02T19:04:38.208Z,13.75
2019-05-02T19:07:07.509Z,14.07
2019-05-02T19:09:35.070Z,23.07
2019-05-02T19:12:06.650Z,13.30
2019-05-02T19:14:35.767Z,18.10
2019-05-02T19:17:07.318Z,13.77
2019-05-02T19:19:36.938Z,13.10
2019-05-02T19:22:07.506Z,16.47
2019-05-02T19:24:37.579Z,12.27
2019-05-02T19:27:08.693Z,11.13
2019-05-02T19:29:38.048Z,7.47
2019-05-02T19:32:12.062Z,7.57
2019-05-02T19:34:41.729Z,6.17
2019-05-02T19:37:12.178Z,5.90
2019-05-02T19:39:47.234Z,7.53
2019-05-02T19:42:17.065Z,5.70
2019-05-02T19:44:45.823Z,6.30
2019-05-02T19:47:17.497Z,5.20
2019-05-02T19:49:47.214Z,4.33
2019-05-02T19:52:19.221Z,4.03
2019-05-02T19:54:51.871Z,4.50
2019-05-02T19:57:24.873Z,4.70
2019-05-02T19:59:57.182Z,4.27
2019-05-02T20:02:25.346Z,4.70
2019-05-02T20:04:55.000Z,4.70
2019-05-02T20:07:24.581Z,4.97
2019-05-02T20:09:53.947Z,3.47
2019-05-02T20:12:23.498Z,4.57
2019-05-02T20:14:55.771Z,3.40
2019-05-02T20:17:25.207Z,3.40
2019-05-02T20:19:57.850Z,3.63
2019-05-02T20:22:28.175Z,3.17
2019-05-02T20:25:01.247Z,3.53
2019-05-02T20:27:32.772Z,4.73
2019-05-02T20:30:03.190Z,2.50
2019-05-02T20:32:32.787Z,2.90
2019-05-02T20:35:22.769Z,3.50
2019-05-02T20:37:52.643Z,3.67
2019-05-02T20:40:31.877Z,3.77
2019-05-02T20:43:04.513Z,9.40
2019-05-02T20:45:34.193Z,5.40
2019-05-02T20:48:03.534Z,4.63
2019-05-02T20:50:32.989Z,3.03
2019-05-02T20:53:02.792Z,5.40
2019-05-02T20:55:36.168Z,5.70
2019-05-02T20:58:06.083Z,5.50
2019-05-02T21:00:35.892Z,4.43
2019-05-02T21:03:05.574Z,6.93
2019-05-02T21:05:42.809Z,5.43
2019-05-02T21:08:37.008Z,5.50
2019-05-02T21:11:06.900Z,5.47
2019-05-02T21:13:36.022Z,5.50
2019-05-02T21:16:07.072Z,7.77
2019-05-02T21:18:36.602Z,5.50
2019-05-02T21:21:08.402Z,6.43
2019-05-02T21:23:44.732Z,5.50
2019-05-02T21:26:09.374Z,5.37
2019-05-02T21:28:38.687Z,6.23
2019-05-02T21:31:07.861Z,5.47
2019-05-02T21:33:42.730Z,5.57
2019-05-02T21:36:12.233Z,5.77
2019-05-02T21:38:42.751Z,4.90
2019-05-02T21:41:15.832Z,4.97
2019-05-02T21:43:45.429Z,5.50
2019-05-02T21:46:14.548Z,4.97
2019-05-02T21:48:43.829Z,4.20
2019-05-02T21:51:32.289Z,4.70
2019-05-02T21:54:22.548Z,4.90
2019-05-02T21:56:55.441Z,5.37
2019-05-02T21:59:24.569Z,4.60
2019-05-02T22:01:55.180Z,4.60
2019-05-02T22:04:24.104Z,4.50
2019-05-02T22:06:53.267Z,3.73
2019-05-02T22:09:23.052Z,4.03
2019-05-02T22:11:52.346Z,3.63
2019-05-02T22:14:22.297Z,3.77
2019-05-02T22:16:52.984Z,4.10
2019-05-02T22:19:22.256Z,3.20
2019-05-02T22:21:52.431Z,3.13
2019-05-02T22:24:21.645Z,3.13
2019-05-02T22:26:52.442Z,3.50
2019-05-02T22:29:21.839Z,5.47
2019-05-02T22:31:54.201Z,3.10
2019-05-02T22:34:33.449Z,3.47
2019-05-02T22:37:03.596Z,3.33
2019-05-02T22:39:44.173Z,3.30
2019-05-02T22:42:13.157Z,3.57
2019-05-02T22:44:51.913Z,3.47
2019-05-02T22:47:22.754Z,5.27
2019-05-02T22:49:51.944Z,3.87
2019-05-02T22:52:21.782Z,4.50
2019-05-02T22:54:52.479Z,8.33
2019-05-02T22:57:22.595Z,4.23
2019-05-02T22:59:51.753Z,3.80
2019-05-02T23:02:21.973Z,5.60
2019-05-02T23:04:52.683Z,5.20
2019-05-02T23:07:22.278Z,4.43
2019-05-02T23:09:52.645Z,5.17
2019-05-02T23:12:22.525Z,5.97
2019-05-02T23:14:52.789Z,5.00
2019-05-02T23:17:23.171Z,4.77
2019-05-02T23:19:52.838Z,5.57
2019-05-02T23:22:21.951Z,6.37
2019-05-02T23:25:09.057Z,7.20
2019-05-02T23:27:45.295Z,5.83
2019-05-02T23:30:16.995Z,6.33
2019-05-02T23:32:46.430Z,6.37
2019-05-02T23:35:15.710Z,6.27
2019-05-02T23:37:44.756Z,8.57
2019-05-02T23:40:15.062Z,5.93
2019-05-02T23:42:44.171Z,5.83
2019-05-02T23:45:13.310Z,5.67
2019-05-02T23:47:42.351Z,8.37
2019-05-02T23:50:12.177Z,8.07
2019-05-02T23:52:41.277Z,7.90
2019-05-02T23:55:12.177Z,7.77
2019-05-02T23:57:42.041Z,9.17
